Pimmit, Virginia
Current Conditions -  °F | °C
As of 11:33 AM on Wednesday 22 Oct 2014 (Local Time) from KDCA Reporting Station
Moderate Rain Moderate Rain  
Wind Chill: 57°   Ceiling: 3500
Heat Index: 57°   Visibility: 5mi
Dew Point: 50°   Wind: 16mph
Humidity: 77%   Direction: 340°NNW
Pressure: 29.93"   Gusts: NA
Location:  38.9012°N, 77.1971°W
Report Text: KDCA 221533Z 34014KT 5SM RA FEW025 BKN035 OVC065 14/10 A2993 RMK AO2 P0009
Loading
Personal Weather Stations






























Interactive Weather Map
Tropical Storm Tracking
New forecast layout! Learn more

10-Day Weather Forecast

Advertisements
Track Severe Weather on mobile